createdAt,value
2023-04-03T00:01:24.291Z,-1.35
2023-04-03T00:03:55.719Z,-1.41
2023-04-03T00:06:24.696Z,-0.84
2023-04-03T00:08:52.585Z,-1.47
2023-04-03T00:11:21.710Z,-1.46
2023-04-03T00:13:49.540Z,-1.72
2023-04-03T00:16:17.353Z,-1.40
2023-04-03T00:18:45.294Z,-1.02
2023-04-03T00:21:14.437Z,-1.72
2023-04-03T00:23:42.321Z,-1.54
2023-04-03T00:26:09.960Z,-1.42
2023-04-03T00:28:38.652Z,-1.28
2023-04-03T00:31:06.404Z,-1.14
2023-04-03T00:33:34.234Z,-1.24
2023-04-03T00:36:08.098Z,-1.43
2023-04-03T00:38:36.370Z,-1.53
2023-04-03T00:41:04.068Z,-1.49
2023-04-03T00:43:31.909Z,-1.87
2023-04-03T00:46:00.844Z,-1.42
2023-04-03T00:48:48.228Z,-1.23
2023-04-03T00:51:23.878Z,-0.86
2023-04-03T00:54:06.004Z,-0.17
2023-04-03T00:56:33.855Z,-0.16
2023-04-03T00:59:16.112Z,-0.15
2023-04-03T01:01:44.511Z,-0.18
2023-04-03T01:04:40.503Z,-0.51
2023-04-03T01:07:23.283Z,-0.55
2023-04-03T01:09:57.325Z,-0.13
2023-04-03T01:12:29.701Z,-0.24
2023-04-03T01:15:01.817Z,0.31
2023-04-03T01:17:52.906Z,-1.06
2023-04-03T01:20:32.717Z,-0.67
2023-04-03T01:23:12.392Z,-0.91
2023-04-03T01:25:56.723Z,-0.06
2023-04-03T01:28:32.191Z,-0.04
2023-04-03T01:31:28.182Z,-0.51
2023-04-03T01:33:57.410Z,0.56
2023-04-03T01:36:30.345Z,-0.43
2023-04-03T01:39:00.856Z,-0.35
2023-04-03T01:41:29.090Z,-0.17
2023-04-03T01:44:04.780Z,-1.07
2023-04-03T01:46:32.634Z,-0.81
2023-04-03T01:49:02.444Z,-0.66
2023-04-03T01:51:55.545Z,-0.69
2023-04-03T01:54:23.178Z,-0.22
2023-04-03T01:56:59.318Z,-0.04
2023-04-03T01:59:27.626Z,-0.38
2023-04-03T02:01:55.424Z,-0.58
2023-04-03T02:04:23.854Z,-0.44
2023-04-03T02:06:51.562Z,0.79
2023-04-03T02:09:19.578Z,0.21
2023-04-03T02:11:47.177Z,0.43
2023-04-03T02:14:15.244Z,0.44
2023-04-03T02:16:42.835Z,0.56
2023-04-03T02:19:10.643Z,0.36
2023-04-03T02:21:38.247Z,0.04
2023-04-03T02:24:06.351Z,0.70
2023-04-03T02:26:33.967Z,0.48
2023-04-03T02:29:01.632Z,0.56
2023-04-03T02:31:29.615Z,0.91
2023-04-03T02:33:57.774Z,0.73
2023-04-03T02:36:25.660Z,0.76
2023-04-03T02:38:57.339Z,0.60
2023-04-03T02:41:28.803Z,0.73
2023-04-03T02:43:57.942Z,0.65
2023-04-03T02:46:26.031Z,0.87
2023-04-03T02:48:53.785Z,1.04
2023-04-03T02:51:22.073Z,1.00
2023-04-03T02:53:51.156Z,0.67
2023-04-03T02:56:23.276Z,0.89
2023-04-03T02:58:51.029Z,-0.06
2023-04-03T03:01:19.702Z,-0.84
2023-04-03T03:03:47.581Z,-0.72
2023-04-03T03:06:18.070Z,-0.61
2023-04-03T03:08:45.941Z,-1.07
2023-04-03T03:11:13.733Z,-1.27
2023-04-03T03:13:41.418Z,-1.71
2023-04-03T03:16:09.209Z,-2.40
2023-04-03T03:18:37.410Z,-2.50
2023-04-03T03:21:05.462Z,-2.55
2023-04-03T03:23:33.781Z,-2.62
2023-04-03T03:26:08.449Z,-2.63
2023-04-03T03:28:37.756Z,-2.63
2023-04-03T03:31:07.340Z,-2.74
2023-04-03T03:33:36.856Z,-2.95
2023-04-03T03:36:04.709Z,-1.72
2023-04-03T03:38:32.385Z,-1.06
2023-04-03T03:41:01.597Z,-1.20
2023-04-03T03:43:31.051Z,-1.40
2023-04-03T03:45:58.833Z,-1.64
2023-04-03T03:48:28.038Z,-1.26
2023-04-03T03:50:56.085Z,-1.24
2023-04-03T03:53:27.643Z,-1.94
2023-04-03T03:55:59.439Z,-1.87
2023-04-03T03:58:29.385Z,-2.81
2023-04-03T04:00:57.053Z,-1.34
2023-04-03T04:03:24.993Z,-1.96
2023-04-03T04:05:53.167Z,-1.06
2023-04-03T04:08:20.833Z,-0.97
2023-04-03T04:10:48.591Z,-1.48
2023-04-03T04:13:18.317Z,-1.09
2023-04-03T04:15:46.781Z,-1.10
2023-04-03T04:18:16.023Z,-0.94
2023-04-03T04:20:47.514Z,-1.07
2023-04-03T04:23:19.367Z,-0.48
2023-04-03T04:25:49.645Z,-0.67
2023-04-03T04:28:18.071Z,-0.56
2023-04-03T04:30:46.159Z,-0.40
2023-04-03T04:33:15.149Z,-0.56
2023-04-03T04:35:44.722Z,-0.77
2023-04-03T04:38:13.172Z,-1.94
2023-04-03T04:40:41.604Z,-0.81
2023-04-03T04:43:09.313Z,-0.96
2023-04-03T04:45:37.646Z,-1.02
2023-04-03T04:48:05.925Z,-0.99
2023-04-03T04:50:33.625Z,-0.93
2023-04-03T04:53:01.300Z,-0.32
2023-04-03T04:55:29.033Z,-0.19
2023-04-03T04:57:57.295Z,0.18
2023-04-03T05:00:25.114Z,-0.91
2023-04-03T05:02:53.089Z,-0.36
2023-04-03T05:05:21.222Z,-0.79
2023-04-03T05:07:49.061Z,-0.93
2023-04-03T05:10:17.588Z,-1.36
2023-04-03T05:12:46.389Z,-1.10
2023-04-03T05:15:13.988Z,-1.83
2023-04-03T05:17:42.087Z,-1.41
2023-04-03T05:20:13.853Z,-1.28
2023-04-03T05:22:43.303Z,-1.03
2023-04-03T05:25:11.658Z,-1.03
2023-04-03T05:27:42.397Z,-1.13
2023-04-03T05:30:10.463Z,-1.14
2023-04-03T05:32:41.030Z,-1.86
2023-04-03T05:35:17.645Z,-1.54
2023-04-03T05:37:47.925Z,-1.77
2023-04-03T05:40:18.567Z,-2.01
2023-04-03T05:42:48.550Z,-1.27
2023-04-03T05:45:17.980Z,-0.49
2023-04-03T05:47:45.735Z,-1.17
2023-04-03T05:50:13.961Z,-1.38
2023-04-03T05:52:46.610Z,-0.81
2023-04-03T05:55:16.369Z,-0.37
2023-04-03T05:57:44.122Z,0.31
2023-04-03T06:00:16.592Z,-0.07
2023-04-03T06:02:50.041Z,-0.35
2023-04-03T06:05:23.578Z,-0.19
2023-04-03T06:07:51.828Z,-0.13
2023-04-03T06:10:21.083Z,-0.26
2023-04-03T06:12:49.029Z,-1.24
2023-04-03T06:15:18.031Z,-0.62
2023-04-03T06:17:46.040Z,-0.53
2023-04-03T06:20:14.408Z,-1.18
2023-04-03T06:22:42.972Z,-0.86
2023-04-03T06:25:13.164Z,-0.51
2023-04-03T06:27:41.129Z,-0.75
2023-04-03T06:30:09.270Z,-0.17
2023-04-03T06:32:36.968Z,-0.35
2023-04-03T06:35:06.252Z,0.10
2023-04-03T06:37:34.075Z,0.22
2023-04-03T06:40:02.593Z,0.63
2023-04-03T06:42:30.437Z,0.60
2023-04-03T06:45:08.815Z,-0.11
2023-04-03T06:47:36.482Z,0.88
2023-04-03T06:50:04.779Z,1.01
2023-04-03T06:52:32.504Z,1.25
2023-04-03T06:55:01.334Z,1.53
2023-04-03T06:57:29.244Z,1.54
2023-04-03T06:59:57.468Z,1.44
2023-04-03T07:02:25.237Z,1.03
2023-04-03T07:04:53.072Z,2.06
2023-04-03T07:07:20.744Z,1.30
2023-04-03T07:09:49.019Z,1.15
2023-04-03T07:12:17.083Z,1.37
2023-04-03T07:14:44.822Z,1.12
2023-04-03T07:17:12.518Z,1.83
2023-04-03T07:19:48.865Z,1.95
2023-04-03T07:22:16.902Z,0.79
2023-04-03T07:24:45.004Z,0.07
2023-04-03T07:27:13.696Z,0.59
2023-04-03T07:29:41.609Z,0.59
2023-04-03T07:32:09.728Z,0.03
2023-04-03T07:34:37.845Z,1.10
2023-04-03T07:37:05.864Z,1.05
2023-04-03T07:39:33.886Z,1.56
2023-04-03T07:42:02.763Z,1.13
2023-04-03T07:44:31.707Z,1.35
2023-04-03T07:47:00.993Z,1.19
2023-04-03T07:49:29.581Z,1.16
2023-04-03T07:51:57.208Z,1.71
2023-04-03T07:54:24.864Z,1.42
2023-04-03T07:56:52.649Z,0.79
2023-04-03T07:59:20.527Z,0.87
2023-04-03T08:01:48.125Z,0.83
2023-04-03T08:04:16.163Z,0.44
2023-04-03T08:06:46.982Z,0.48
2023-04-03T08:09:16.798Z,0.50
2023-04-03T08:11:45.426Z,0.59
2023-04-03T08:14:18.855Z,1.03
2023-04-03T08:16:49.073Z,0.80
2023-04-03T08:19:25.279Z,0.82
2023-04-03T08:21:56.165Z,0.44
2023-04-03T08:24:24.257Z,0.11
2023-04-03T08:26:51.866Z,0.12
2023-04-03T08:29:19.725Z,0.15
2023-04-03T08:31:47.724Z,1.23
2023-04-03T08:34:15.488Z,1.07
2023-04-03T08:36:43.858Z,1.51
2023-04-03T08:39:12.166Z,1.57
2023-04-03T08:41:43.578Z,1.11
2023-04-03T08:44:58.145Z,1.04
2023-04-03T08:47:47.147Z,0.88
2023-04-03T08:50:24.057Z,0.46
2023-04-03T08:53:00.040Z,0.87
2023-04-03T08:55:56.000Z,1.02
2023-04-03T08:58:30.454Z,0.84
2023-04-03T09:01:09.217Z,2.56
2023-04-03T09:03:42.734Z,2.03
2023-04-03T09:06:50.029Z,2.68
2023-04-03T09:10:05.048Z,2.64
2023-04-03T09:13:41.619Z,2.75
2023-04-03T09:16:50.587Z,3.62
2023-04-03T09:19:34.039Z,2.87
2023-04-03T09:22:30.258Z,2.19
2023-04-03T09:25:35.819Z,2.90
2023-04-03T09:28:23.876Z,4.17
2023-04-03T09:31:31.334Z,2.72
2023-04-03T09:34:25.143Z,3.13
2023-04-03T09:37:10.277Z,3.19
2023-04-03T09:39:56.071Z,3.00
2023-04-03T09:42:27.862Z,2.93
2023-04-03T09:46:05.492Z,2.99
2023-04-03T09:55:30.722Z,4.11
2023-04-03T09:58:02.710Z,4.48
2023-04-03T10:00:39.882Z,4.40
2023-04-03T10:04:06.182Z,2.48
2023-04-03T10:06:53.164Z,2.23
2023-04-03T10:09:51.285Z,3.00
2023-04-03T10:12:22.032Z,2.79
2023-04-03T10:15:35.346Z,3.61
2023-04-03T10:22:21.517Z,5.00
2023-04-03T10:25:12.778Z,5.68
2023-04-03T10:28:34.983Z,5.02
2023-04-03T10:32:16.122Z,6.35
2023-04-03T10:35:53.332Z,5.52
2023-04-03T10:38:58.988Z,6.33
2023-04-03T10:42:15.811Z,5.89
2023-04-03T10:45:18.182Z,7.57
2023-04-03T10:48:27.834Z,7.45
2023-04-03T10:51:25.166Z,7.41
2023-04-03T10:54:09.366Z,6.65
2023-04-03T10:56:46.347Z,5.27
2023-04-03T10:59:45.366Z,5.02
2023-04-03T11:02:38.323Z,5.06
2023-04-03T11:05:51.676Z,4.66
2023-04-03T11:08:45.141Z,5.05
2023-04-03T11:11:28.178Z,5.33
2023-04-03T11:14:23.400Z,5.27
2023-04-03T11:17:22.922Z,5.56
2023-04-03T11:20:18.299Z,5.31
2023-04-03T11:23:10.536Z,5.02
2023-04-03T11:25:44.309Z,4.80
2023-04-03T11:28:15.192Z,5.25
2023-04-03T11:30:51.141Z,4.65
2023-04-03T11:34:11.383Z,4.81
2023-04-03T11:36:56.224Z,4.49
2023-04-03T11:39:30.148Z,4.16
2023-04-03T11:42:19.163Z,4.63
2023-04-03T11:44:47.403Z,4.41
2023-04-03T11:48:23.078Z,4.49
2023-04-03T11:50:52.970Z,4.50
2023-04-03T11:53:37.443Z,5.29
2023-04-03T11:56:24.230Z,5.21
2023-04-03T11:59:19.323Z,3.90
2023-04-03T12:01:51.740Z,3.82
2023-04-03T12:04:23.106Z,4.19
2023-04-03T12:07:04.014Z,5.39
2023-04-03T12:09:58.066Z,5.55
2023-04-03T12:12:33.597Z,5.37
2023-04-03T12:15:48.133Z,5.48
2023-04-03T12:18:49.676Z,5.41
2023-04-03T12:21:49.803Z,4.67
2023-04-03T12:24:17.396Z,4.70
2023-04-03T12:27:30.115Z,4.51
2023-04-03T12:30:16.988Z,3.57
2023-04-03T12:33:05.709Z,4.43
2023-04-03T12:36:01.334Z,3.98
2023-04-03T12:39:26.061Z,4.97
2023-04-03T12:42:13.010Z,5.38
2023-04-03T12:45:01.648Z,5.68
2023-04-03T12:47:39.352Z,5.41
2023-04-03T12:50:31.243Z,5.00
2023-04-03T12:53:07.166Z,5.14
2023-04-03T12:55:34.990Z,6.13
2023-04-03T12:58:27.616Z,6.35
2023-04-03T13:01:12.927Z,6.47
2023-04-03T13:03:44.705Z,5.75
2023-04-03T13:06:32.060Z,4.73
2023-04-03T13:09:22.632Z,4.76
2023-04-03T13:11:57.093Z,4.69
2023-04-03T13:14:29.153Z,3.59
2023-04-03T13:17:15.819Z,3.68
2023-04-03T13:19:48.708Z,4.86
2023-04-03T13:22:40.622Z,4.29
2023-04-03T13:25:11.972Z,5.02
2023-04-03T13:27:43.380Z,5.45
2023-04-03T13:30:41.454Z,5.28
2023-04-03T13:33:32.479Z,4.80
2023-04-03T13:36:20.944Z,4.71
2023-04-03T13:39:22.256Z,4.94
2023-04-03T13:41:54.404Z,5.18
2023-04-03T13:44:24.829Z,4.40
2023-04-03T13:47:22.252Z,4.86
2023-04-03T13:50:05.742Z,4.61
2023-04-03T13:52:56.631Z,4.42
2023-04-03T13:55:34.565Z,3.47
2023-04-03T13:58:24.035Z,4.48
2023-04-03T14:01:02.416Z,4.43
2023-04-03T14:03:46.384Z,3.68
2023-04-03T14:06:17.636Z,3.78
2023-04-03T14:08:47.322Z,4.13
2023-04-03T14:11:28.259Z,5.01
2023-04-03T14:14:01.265Z,5.19
2023-04-03T14:16:38.100Z,5.94
2023-04-03T14:19:06.164Z,4.84
2023-04-03T14:24:37.387Z,4.43
2023-04-03T14:30:38.296Z,2.99
2023-04-03T14:33:30.948Z,2.92
2023-04-03T14:36:38.413Z,4.59
2023-04-03T14:39:36.648Z,4.79
2023-04-03T14:43:12.242Z,4.09
2023-04-03T14:45:53.816Z,3.96
2023-04-03T14:48:34.901Z,3.12
2023-04-03T14:55:03.111Z,4.49
2023-04-03T14:58:05.553Z,3.84
2023-04-03T15:00:36.520Z,3.37
2023-04-03T15:03:32.170Z,4.15
2023-04-03T15:06:49.215Z,4.50
2023-04-03T15:09:46.320Z,4.37
2023-04-03T15:12:28.314Z,4.87
2023-04-03T15:15:31.635Z,4.88
2023-04-03T15:18:00.372Z,4.45
2023-04-03T15:20:34.064Z,5.78
2023-04-03T15:23:02.391Z,5.98
2023-04-03T15:25:30.967Z,5.25
2023-04-03T15:27:59.595Z,4.55
2023-04-03T15:30:27.737Z,4.34
2023-04-03T15:32:55.829Z,5.00
2023-04-03T15:35:23.787Z,5.95
2023-04-03T15:37:52.237Z,5.20
2023-04-03T15:40:22.436Z,4.19
2023-04-03T15:42:51.778Z,3.86
2023-04-03T15:45:22.116Z,3.09
2023-04-03T15:47:49.865Z,3.14
2023-04-03T15:50:17.885Z,3.16
2023-04-03T15:52:48.199Z,3.22
2023-04-03T15:55:22.709Z,3.39
2023-04-03T15:57:50.536Z,3.21
2023-04-03T16:00:18.663Z,3.64
2023-04-03T16:02:48.327Z,4.34
2023-04-03T16:05:19.385Z,3.75
2023-04-03T16:07:47.829Z,3.08
2023-04-03T16:10:18.388Z,3.67
2023-04-03T16:12:46.573Z,2.94
2023-04-03T16:15:14.339Z,2.92
2023-04-03T16:17:42.490Z,2.51
2023-04-03T16:20:13.423Z,2.16
2023-04-03T16:22:41.848Z,2.52
2023-04-03T16:25:10.915Z,3.04
2023-04-03T16:27:39.219Z,3.50
2023-04-03T16:30:08.376Z,3.47
2023-04-03T16:32:38.085Z,3.62
2023-04-03T16:35:06.972Z,2.77
2023-04-03T16:37:36.610Z,2.27
2023-04-03T16:40:07.009Z,2.36
2023-04-03T16:42:38.095Z,2.27
2023-04-03T16:45:13.166Z,2.64
2023-04-03T16:47:42.015Z,2.20
2023-04-03T16:50:10.819Z,2.32
2023-04-03T16:52:38.702Z,1.92
2023-04-03T16:55:07.403Z,1.48
2023-04-03T16:57:35.187Z,2.34
2023-04-03T17:00:04.143Z,2.25
2023-04-03T17:02:32.417Z,2.19
2023-04-03T17:05:00.637Z,2.65
2023-04-03T17:07:28.318Z,2.55
2023-04-03T17:09:56.154Z,2.69
2023-04-03T17:12:24.106Z,3.08
2023-04-03T17:14:52.258Z,3.28
2023-04-03T17:17:24.996Z,3.39
2023-04-03T17:19:57.924Z,2.14
2023-04-03T17:22:26.262Z,1.51
2023-04-03T17:24:53.984Z,2.63
2023-04-03T17:27:22.341Z,2.52
2023-04-03T17:29:50.392Z,1.86
2023-04-03T17:32:18.540Z,1.65
2023-04-03T17:34:47.961Z,2.43
2023-04-03T17:37:15.788Z,2.31
2023-04-03T17:39:43.814Z,3.53
2023-04-03T17:42:16.437Z,3.23
2023-04-03T17:44:44.230Z,4.01
2023-04-03T17:47:12.016Z,2.82
2023-04-03T17:49:39.806Z,2.56
2023-04-03T17:52:07.764Z,2.34
2023-04-03T17:54:37.832Z,3.29
2023-04-03T17:57:08.173Z,2.99
2023-04-03T17:59:36.328Z,3.17
2023-04-03T18:02:04.082Z,3.75
2023-04-03T18:04:32.122Z,3.96
2023-04-03T18:07:04.305Z,3.78
2023-04-03T18:09:33.787Z,2.71
2023-04-03T18:12:10.030Z,3.26
2023-04-03T18:14:39.404Z,3.48
2023-04-03T18:17:07.862Z,3.14
2023-04-03T18:19:37.076Z,2.99
2023-04-03T18:22:14.872Z,3.54
2023-04-03T18:24:43.852Z,3.71
2023-04-03T18:27:18.437Z,3.46
2023-04-03T18:29:52.618Z,2.60
2023-04-03T18:32:23.692Z,1.91
2023-04-03T18:34:54.214Z,2.29
2023-04-03T18:37:24.040Z,2.21
2023-04-03T18:39:52.238Z,1.51
2023-04-03T18:42:24.998Z,1.72
2023-04-03T18:44:58.513Z,1.20
2023-04-03T18:47:28.714Z,1.61
2023-04-03T18:49:58.089Z,1.85
2023-04-03T18:52:26.033Z,2.03
2023-04-03T18:54:56.905Z,2.22
2023-04-03T18:57:26.444Z,2.35
2023-04-03T18:59:54.348Z,2.79
2023-04-03T19:02:24.382Z,2.16
2023-04-03T19:04:53.573Z,2.13
2023-04-03T19:07:24.000Z,2.92
2023-04-03T19:09:51.747Z,2.79
2023-04-03T19:12:19.421Z,2.29
2023-04-03T19:14:47.362Z,2.12
2023-04-03T19:17:15.278Z,1.61
2023-04-03T19:19:43.117Z,2.68
2023-04-03T19:22:11.039Z,2.51
2023-04-03T19:24:38.719Z,2.31
2023-04-03T19:27:06.621Z,2.94
2023-04-03T19:29:34.616Z,2.59
2023-04-03T19:32:04.567Z,2.38
2023-04-03T19:34:33.113Z,3.27
2023-04-03T19:37:02.541Z,3.63
2023-04-03T19:39:35.142Z,3.08
2023-04-03T19:42:04.769Z,3.54
2023-04-03T19:44:36.650Z,3.03
2023-04-03T19:47:05.277Z,2.46
2023-04-03T19:49:35.876Z,2.45
2023-04-03T19:52:04.697Z,2.13
2023-04-03T19:54:32.778Z,2.59
2023-04-03T19:57:00.837Z,1.77
2023-04-03T19:59:28.845Z,2.13
2023-04-03T20:01:57.650Z,2.58
2023-04-03T20:04:25.620Z,2.80
2023-04-03T20:06:53.750Z,2.78
2023-04-03T20:09:22.244Z,2.41
2023-04-03T20:11:50.922Z,2.13
2023-04-03T20:14:19.907Z,1.72
2023-04-03T20:16:48.453Z,1.35
2023-04-03T20:19:16.784Z,0.97
2023-04-03T20:21:45.088Z,1.26
2023-04-03T20:24:15.034Z,1.02
2023-04-03T20:26:46.404Z,2.26
2023-04-03T20:29:16.561Z,2.30
2023-04-03T20:31:44.776Z,1.24
2023-04-03T20:34:13.846Z,1.58
2023-04-03T20:36:43.008Z,1.24
2023-04-03T20:39:11.039Z,0.59
2023-04-03T20:41:39.384Z,0.53
2023-04-03T20:44:07.097Z,1.28
2023-04-03T20:46:51.366Z,1.93
2023-04-03T20:49:19.643Z,0.36
2023-04-03T20:51:47.771Z,0.15
2023-04-03T20:54:15.465Z,0.10
2023-04-03T20:56:44.174Z,0.75
2023-04-03T20:59:13.872Z,0.86
2023-04-03T21:01:44.148Z,0.90
2023-04-03T21:04:34.187Z,1.33
2023-04-03T21:07:58.628Z,0.95
2023-04-03T21:11:31.673Z,0.73
2023-04-03T21:14:56.567Z,0.72
2023-04-03T21:17:24.101Z,0.78
2023-04-03T21:19:53.208Z,0.74
2023-04-03T21:22:21.332Z,1.11
2023-04-03T21:24:49.043Z,1.43
2023-04-03T21:27:16.889Z,1.01
2023-04-03T21:29:49.559Z,1.73
2023-04-03T21:32:19.521Z,2.54
2023-04-03T21:34:47.181Z,1.75
2023-04-03T21:37:14.823Z,2.12
2023-04-03T21:39:43.830Z,1.92
2023-04-03T21:42:11.537Z,1.28
2023-04-03T21:44:39.953Z,1.17
2023-04-03T21:47:07.645Z,1.51
2023-04-03T21:49:44.499Z,1.86
2023-04-03T21:52:15.285Z,1.53
2023-04-03T21:54:43.657Z,1.29
2023-04-03T21:57:14.432Z,1.12
2023-04-03T21:59:46.477Z,0.87
2023-04-03T22:02:14.939Z,0.57
2023-04-03T22:04:42.633Z,0.91
2023-04-03T22:07:10.317Z,1.33
2023-04-03T22:09:37.970Z,1.65
2023-04-03T22:12:08.379Z,1.56
2023-04-03T22:14:36.686Z,1.60
2023-04-03T22:17:05.755Z,1.85
2023-04-03T22:19:49.134Z,1.98
2023-04-03T22:22:21.522Z,1.43
2023-04-03T22:24:49.383Z,1.36
2023-04-03T22:27:17.228Z,0.86
2023-04-03T22:29:44.907Z,0.96
2023-04-03T22:32:12.584Z,1.45
2023-04-03T22:34:41.159Z,1.56
2023-04-03T22:37:08.913Z,1.60
2023-04-03T22:39:37.312Z,1.73
2023-04-03T22:42:05.775Z,1.26
2023-04-03T22:44:36.643Z,0.72
2023-04-03T22:47:04.659Z,1.08
2023-04-03T22:49:33.017Z,1.54
2023-04-03T22:52:01.000Z,1.59
2023-04-03T22:54:28.798Z,0.75
2023-04-03T22:56:56.512Z,1.24
2023-04-03T22:59:24.210Z,1.17
2023-04-03T23:01:52.284Z,-0.39
2023-04-03T23:04:20.054Z,-0.58
2023-04-03T23:06:48.331Z,-0.52
2023-04-03T23:09:16.402Z,-0.66
2023-04-03T23:11:44.120Z,-0.60
2023-04-03T23:14:11.903Z,-0.07
2023-04-03T23:16:39.802Z,-0.28
2023-04-03T23:19:08.449Z,-0.52
2023-04-03T23:21:36.324Z,-0.84
2023-04-03T23:24:04.037Z,-0.52
2023-04-03T23:26:31.785Z,-0.95
2023-04-03T23:28:59.454Z,-0.74
2023-04-03T23:31:27.223Z,-0.24
2023-04-03T23:33:54.854Z,-0.07
2023-04-03T23:36:22.490Z,-0.22
2023-04-03T23:38:50.074Z,0.11
2023-04-03T23:41:17.797Z,-0.28
2023-04-03T23:43:47.464Z,-0.46
2023-04-03T23:46:15.265Z,0.29
2023-04-03T23:48:43.018Z,0.48
2023-04-03T23:51:10.676Z,0.17
2023-04-03T23:53:38.309Z,0.04
2023-04-03T23:56:09.730Z,-0.14
2023-04-03T23:58:37.578Z,0.05
